createdAt,value
2018-03-26T00:00:00.208Z,71.90
2018-03-26T00:02:27.714Z,71.90
2018-03-26T00:04:55.203Z,71.60
2018-03-26T00:07:22.677Z,71.60
2018-03-26T00:09:50.170Z,71.50
2018-03-26T00:12:18.414Z,70.40
2018-03-26T00:14:46.001Z,70.40
2018-03-26T00:17:14.243Z,70.20
2018-03-26T00:19:41.746Z,70.10
2018-03-26T00:22:09.227Z,70.90
2018-03-26T00:24:36.700Z,71.00
2018-03-26T00:27:04.223Z,71.30
2018-03-26T00:29:31.695Z,71.30
2018-03-26T00:31:59.202Z,71.40
2018-03-26T00:34:26.677Z,71.70
2018-03-26T00:36:54.954Z,72.40
2018-03-26T00:39:22.420Z,72.30
2018-03-26T00:41:50.691Z,71.60
2018-03-26T00:44:18.161Z,71.60
2018-03-26T00:46:46.415Z,71.70
2018-03-26T00:49:13.990Z,71.60
2018-03-26T00:51:42.674Z,73.10
2018-03-26T00:54:10.957Z,72.50
2018-03-26T00:56:39.219Z,73.80
2018-03-26T00:59:06.751Z,73.80
2018-03-26T01:01:34.255Z,74.80
2018-03-26T01:04:02.517Z,75.20
2018-03-26T01:06:29.983Z,75.10
2018-03-26T01:08:58.271Z,74.40
2018-03-26T01:11:26.518Z,73.90
2018-03-26T01:13:54.027Z,73.90
2018-03-26T01:16:21.492Z,74.00
2018-03-26T01:18:48.961Z,74.10
2018-03-26T01:21:16.466Z,74.00
2018-03-26T01:23:43.946Z,74.60
2018-03-26T01:26:11.445Z,75.20
2018-03-26T01:28:38.951Z,75.00
2018-03-26T01:31:07.221Z,73.90
2018-03-26T01:33:34.721Z,73.90
2018-03-26T01:36:02.216Z,74.90
2018-03-26T01:38:29.683Z,75.20
2018-03-26T01:40:57.187Z,75.40
2018-03-26T01:43:24.652Z,75.10
2018-03-26T01:45:52.155Z,73.70
2018-03-26T01:48:19.614Z,74.00
2018-03-26T01:50:47.100Z,74.80
2018-03-26T01:53:15.375Z,76.50
2018-03-26T01:55:43.668Z,74.90
2018-03-26T01:58:11.148Z,74.90
2018-03-26T02:00:38.622Z,75.50
2018-03-26T02:03:06.126Z,75.50
2018-03-26T02:05:34.355Z,74.90
2018-03-26T02:08:01.858Z,74.90
2018-03-26T02:10:30.092Z,76.50
2018-03-26T02:12:57.555Z,76.40
2018-03-26T02:15:25.089Z,77.10
2018-03-26T02:17:52.597Z,77.70
2018-03-26T02:20:20.084Z,77.90
2018-03-26T02:22:48.324Z,76.40
2018-03-26T02:25:15.811Z,76.40
2018-03-26T02:27:44.084Z,76.60
2018-03-26T02:30:12.313Z,77.10
2018-03-26T02:32:39.776Z,77.00
2018-03-26T02:35:07.276Z,77.70
2018-03-26T02:37:35.536Z,75.00
2018-03-26T02:40:03.029Z,75.00
2018-03-26T02:42:30.512Z,76.10
2018-03-26T02:44:58.009Z,74.70
2018-03-26T02:47:25.461Z,74.50
2018-03-26T02:49:52.967Z,74.60
2018-03-26T02:52:20.464Z,73.80
2018-03-26T02:54:47.947Z,76.80
2018-03-26T02:57:15.448Z,79.10
2018-03-26T02:59:42.921Z,81.40
2018-03-26T03:02:10.439Z,81.80
2018-03-26T03:04:38.700Z,80.20
2018-03-26T03:07:06.290Z,80.20
2018-03-26T03:09:34.526Z,77.20
2018-03-26T03:12:02.018Z,77.10
2018-03-26T03:14:30.264Z,79.10
2018-03-26T03:16:57.797Z,79.10
2018-03-26T03:19:25.254Z,81.00
2018-03-26T03:21:52.771Z,79.40
2018-03-26T03:24:21.007Z,76.60
2018-03-26T03:26:48.495Z,76.60
2018-03-26T03:29:16.743Z,75.20
2018-03-26T03:31:44.255Z,75.10
2018-03-26T03:34:11.723Z,75.30
2018-03-26T03:36:39.191Z,75.20
2018-03-26T03:39:06.688Z,74.80
2018-03-26T03:41:34.162Z,74.90
2018-03-26T03:44:01.668Z,73.90
2018-03-26T03:46:29.144Z,73.50
2018-03-26T03:48:56.632Z,73.40
2018-03-26T03:51:24.142Z,73.90
2018-03-26T03:53:51.602Z,77.50
2018-03-26T03:56:19.108Z,77.00
2018-03-26T03:58:46.575Z,74.60
2018-03-26T04:01:14.077Z,74.80
2018-03-26T04:03:41.558Z,75.60
2018-03-26T04:06:09.039Z,74.40
2018-03-26T04:08:36.516Z,73.90
2018-03-26T04:11:04.797Z,74.80
2018-03-26T04:13:33.039Z,74.60
2018-03-26T04:16:00.550Z,74.60
2018-03-26T04:18:28.028Z,73.60
2018-03-26T04:20:55.522Z,74.20
2018-03-26T04:23:23.039Z,75.90
2018-03-26T04:25:50.529Z,76.40
2018-03-26T04:28:18.026Z,77.80
2018-03-26T04:30:46.274Z,81.60
2018-03-26T04:33:13.793Z,81.60
2018-03-26T04:35:41.272Z,81.40
2018-03-26T04:38:08.833Z,81.20
2018-03-26T04:40:36.342Z,80.10
2018-03-26T04:43:04.651Z,78.30
2018-03-26T04:45:32.122Z,78.30
2018-03-26T04:47:59.615Z,78.00
2018-03-26T04:50:27.157Z,76.30
2018-03-26T04:52:54.614Z,75.50
2018-03-26T04:55:22.124Z,77.00
2018-03-26T04:57:49.593Z,77.70
2018-03-26T05:00:17.112Z,77.60
2018-03-26T05:02:44.610Z,76.80
2018-03-26T05:05:16.672Z,76.90
2018-03-26T05:07:44.162Z,76.50
2018-03-26T05:10:11.667Z,77.10
2018-03-26T05:12:39.935Z,77.40
2018-03-26T05:15:07.460Z,77.40
2018-03-26T05:17:34.955Z,77.80
2018-03-26T05:20:03.215Z,76.60
2018-03-26T05:22:30.718Z,76.60
2018-03-26T05:24:58.952Z,76.80
2018-03-26T05:27:26.454Z,76.80
2018-03-26T05:29:54.027Z,77.20
2018-03-26T05:32:21.552Z,77.40
2018-03-26T05:38:21.627Z,76.60
2018-03-26T05:40:49.123Z,76.50
2018-03-26T05:43:16.625Z,76.40
2018-03-26T05:45:44.866Z,78.40
2018-03-26T05:48:12.347Z,78.40
2018-03-26T05:50:40.597Z,79.50
2018-03-26T05:53:08.127Z,79.50
2018-03-26T05:55:35.602Z,80.90
2018-03-26T05:58:03.116Z,81.50
2018-03-26T06:00:31.357Z,80.80
2018-03-26T06:02:58.882Z,80.80
2018-03-26T06:05:26.376Z,80.40
2018-03-26T06:07:53.889Z,81.70
2018-03-26T06:10:21.377Z,81.80
2018-03-26T06:12:48.843Z,82.20
2018-03-26T06:15:16.344Z,81.20
2018-03-26T06:17:44.582Z,70.50
2018-03-26T06:20:12.097Z,70.40
2018-03-26T06:22:39.566Z,66.40
2018-03-26T06:25:07.065Z,72.10
2018-03-26T06:27:35.326Z,76.10
2018-03-26T06:30:02.875Z,76.10
2018-03-26T06:32:30.367Z,76.50
2018-03-26T06:34:59.378Z,78.60
2018-03-26T06:40:29.334Z,80.40
2018-03-26T06:42:56.855Z,81.20
2018-03-26T06:45:24.374Z,81.80
2018-03-26T06:47:51.906Z,82.00
2018-03-26T06:50:20.034Z,82.30
2018-03-26T06:52:47.578Z,82.40
2018-03-26T06:55:15.050Z,82.70
2018-03-26T06:57:42.525Z,83.00
2018-03-26T07:00:10.039Z,83.80
2018-03-26T07:02:37.568Z,82.90
2018-03-26T07:05:05.831Z,82.20
2018-03-26T07:07:34.122Z,83.20
2018-03-26T07:10:02.397Z,84.40
2018-03-26T07:12:30.757Z,84.90
2018-03-26T07:14:58.170Z,84.90
2018-03-26T07:17:25.695Z,85.50
2018-03-26T07:19:53.946Z,83.90
2018-03-26T07:22:21.458Z,83.90
2018-03-26T07:24:48.965Z,83.80
2018-03-26T07:27:16.432Z,84.30
2018-03-26T07:29:44.707Z,85.30
2018-03-26T07:32:12.212Z,85.30
2018-03-26T07:34:39.697Z,85.60
2018-03-26T07:37:07.202Z,84.50
2018-03-26T07:39:35.495Z,84.10
2018-03-26T07:42:02.987Z,84.20
2018-03-26T07:44:30.478Z,85.20
2018-03-26T07:46:58.751Z,83.80
2018-03-26T07:49:26.224Z,83.80
2018-03-26T07:51:54.510Z,83.70
2018-03-26T07:54:21.995Z,83.70
2018-03-26T07:56:49.485Z,84.30
2018-03-26T07:59:16.972Z,83.50
2018-03-26T08:01:45.235Z,82.30
2018-03-26T08:04:12.736Z,82.30
2018-03-26T08:06:40.243Z,82.20
2018-03-26T08:09:07.802Z,82.30
2018-03-26T08:11:35.283Z,82.40
2018-03-26T08:14:03.553Z,81.10
2018-03-26T08:16:31.019Z,81.00
2018-03-26T08:18:59.316Z,79.40
2018-03-26T08:21:27.550Z,78.80
2018-03-26T08:23:55.066Z,78.80
2018-03-26T08:26:22.566Z,72.50
2018-03-26T08:28:50.069Z,70.80
2018-03-26T08:31:18.290Z,68.80
2018-03-26T08:33:45.796Z,68.80
2018-03-26T08:36:13.334Z,68.90
2018-03-26T08:38:41.586Z,68.40
2018-03-26T08:41:09.088Z,68.30
2018-03-26T08:43:37.330Z,67.90
2018-03-26T08:46:04.865Z,67.90
2018-03-26T08:48:32.356Z,68.40
2018-03-26T08:50:59.852Z,67.90
2018-03-26T08:53:29.364Z,68.00
2018-03-26T08:55:54.833Z,67.50
2018-03-26T08:58:23.102Z,67.00
2018-03-26T09:00:50.623Z,67.00
2018-03-26T09:03:18.079Z,67.10
2018-03-26T09:05:45.567Z,67.20
2018-03-26T09:08:13.077Z,66.90
2018-03-26T09:10:41.302Z,66.70
2018-03-26T09:13:08.820Z,66.70
2018-03-26T09:15:36.350Z,67.00
2018-03-26T09:18:03.819Z,66.90
2018-03-26T09:20:32.109Z,66.50
2018-03-26T09:22:59.610Z,66.50
2018-03-26T09:25:27.111Z,65.20
2018-03-26T09:27:55.390Z,64.70
2018-03-26T09:30:23.675Z,65.40
2018-03-26T09:32:51.949Z,64.90
2018-03-26T09:35:20.246Z,64.70
2018-03-26T09:37:47.728Z,64.70
2018-03-26T09:40:15.218Z,65.50
2018-03-26T09:42:42.746Z,65.00
2018-03-26T09:45:10.230Z,65.10
2018-03-26T09:47:37.706Z,65.80
2018-03-26T09:50:05.221Z,65.80
2018-03-26T09:52:32.817Z,66.30
2018-03-26T09:55:00.281Z,65.90
2018-03-26T09:57:27.764Z,65.70
2018-03-26T09:59:55.276Z,66.30
2018-03-26T10:02:22.761Z,65.70
2018-03-26T10:04:51.039Z,66.00
2018-03-26T10:07:18.500Z,65.90
2018-03-26T10:09:46.916Z,65.40
2018-03-26T10:12:14.382Z,65.40
2018-03-26T10:14:41.874Z,65.60
2018-03-26T10:17:09.374Z,65.80
2018-03-26T10:19:37.650Z,65.10
2018-03-26T10:22:05.878Z,65.10
2018-03-26T10:24:33.395Z,65.10
2018-03-26T10:27:00.850Z,40.40
2018-03-26T10:29:28.359Z,39.50
2018-03-26T10:31:55.911Z,40.40
2018-03-26T10:34:23.374Z,40.80
2018-03-26T10:36:50.879Z,39.40
2018-03-26T10:39:18.358Z,41.50
2018-03-26T10:41:45.868Z,40.20
2018-03-26T10:44:13.355Z,36.10
2018-03-26T10:46:40.857Z,35.30
2018-03-26T10:49:08.340Z,36.00
2018-03-26T10:51:35.839Z,35.90
2018-03-26T10:54:03.439Z,36.10
2018-03-26T10:56:30.943Z,35.40
2018-03-26T10:58:59.181Z,34.50
2018-03-26T11:01:26.688Z,34.30
2018-03-26T11:03:54.214Z,33.80
2018-03-26T11:06:21.706Z,34.30
2018-03-26T11:08:49.217Z,36.80
2018-03-26T11:11:16.674Z,38.50
2018-03-26T11:13:44.150Z,37.20
2018-03-26T11:16:11.630Z,34.60
2018-03-26T11:18:39.916Z,34.70
2018-03-26T11:21:08.185Z,36.00
2018-03-26T11:23:36.443Z,35.80
2018-03-26T11:26:03.965Z,35.80
2018-03-26T11:28:31.462Z,33.70
2018-03-26T11:30:58.982Z,34.30
2018-03-26T11:33:26.471Z,33.80
2018-03-26T11:35:53.984Z,32.50
2018-03-26T11:38:21.471Z,32.30
2018-03-26T11:40:48.984Z,32.30
2018-03-26T11:43:16.533Z,32.50
2018-03-26T11:45:44.806Z,32.10
2018-03-26T11:48:13.066Z,32.20
2018-03-26T11:50:41.346Z,32.30
2018-03-26T11:53:08.867Z,32.20
2018-03-26T11:55:36.394Z,34.40
2018-03-26T11:58:03.894Z,33.60
2018-03-26T12:00:31.440Z,34.20
2018-03-26T12:02:58.934Z,33.60
2018-03-26T12:05:26.416Z,33.90
2018-03-26T12:07:54.695Z,32.60
2018-03-26T12:10:22.955Z,33.40
2018-03-26T12:12:50.466Z,33.20
2018-03-26T12:15:17.934Z,34.30
2018-03-26T12:17:45.456Z,33.50
2018-03-26T12:20:24.949Z,33.40
2018-03-26T12:22:52.455Z,33.20
2018-03-26T12:25:20.698Z,33.30
2018-03-26T12:30:50.757Z,34.80
2018-03-26T12:33:19.050Z,35.10
2018-03-26T12:36:00.062Z,34.90
2018-03-26T12:38:27.593Z,36.70
2018-03-26T12:40:56.666Z,35.10
2018-03-26T12:43:24.923Z,36.60
2018-03-26T12:46:04.242Z,36.60
2018-03-26T12:48:31.743Z,35.30
2018-03-26T12:51:11.967Z,35.20
2018-03-26T12:53:39.446Z,35.10
2018-03-26T12:56:07.736Z,34.10
2018-03-26T12:58:51.655Z,33.20
2018-03-26T13:01:30.868Z,32.90
2018-03-26T13:03:58.354Z,33.70
2018-03-26T13:06:25.862Z,32.90
2018-03-26T13:08:53.367Z,33.80
2018-03-26T13:11:20.888Z,33.00
2018-03-26T13:13:48.393Z,33.60
2018-03-26T13:16:15.906Z,33.80
2018-03-26T13:18:43.414Z,33.60
2018-03-26T13:21:10.908Z,34.80
2018-03-26T13:23:38.437Z,33.90
2018-03-26T13:26:06.707Z,33.90
2018-03-26T13:28:34.963Z,33.10
2018-03-26T13:31:02.479Z,33.10
2018-03-26T13:33:29.996Z,33.30
2018-03-26T13:35:59.002Z,33.00
2018-03-26T13:38:27.268Z,31.00
2018-03-26T13:40:54.758Z,31.00
2018-03-26T13:43:22.251Z,32.80
2018-03-26T13:45:49.776Z,32.00
2018-03-26T13:48:18.054Z,31.90
2018-03-26T13:50:45.532Z,31.90
2018-03-26T13:53:13.055Z,30.20
2018-03-26T13:55:41.295Z,29.90
2018-03-26T13:58:08.837Z,29.80
2018-03-26T14:00:36.363Z,30.10
2018-03-26T14:03:04.671Z,29.60
2018-03-26T14:05:32.223Z,29.60
2018-03-26T14:07:59.714Z,29.60
2018-03-26T14:10:39.084Z,29.90
2018-03-26T14:13:18.452Z,29.10
2018-03-26T14:15:58.107Z,27.40
2018-03-26T14:18:25.641Z,27.90
2018-03-26T14:20:53.895Z,28.00
2018-03-26T14:23:22.273Z,28.40
2018-03-26T14:25:50.572Z,27.70
2018-03-26T14:28:18.075Z,27.80
2018-03-26T14:30:45.608Z,27.00
2018-03-26T14:33:13.101Z,27.00
2018-03-26T14:35:40.631Z,27.00
2018-03-26T14:38:08.110Z,27.40
2018-03-26T14:40:35.615Z,27.80
2018-03-26T14:43:03.904Z,28.20
2018-03-26T14:45:31.437Z,28.20
2018-03-26T14:47:58.922Z,28.80
2018-03-26T14:50:26.419Z,31.10
2018-03-26T14:52:53.915Z,34.50
2018-03-26T14:55:22.219Z,42.70
2018-03-26T14:57:49.757Z,42.50
2018-03-26T15:00:18.007Z,41.00
2018-03-26T15:02:45.556Z,40.90
2018-03-26T15:05:13.010Z,38.70
2018-03-26T15:07:40.525Z,39.30
2018-03-26T15:10:08.754Z,41.90
2018-03-26T15:12:36.285Z,41.90
2018-03-26T15:15:03.777Z,41.70
2018-03-26T15:17:31.286Z,40.70
2018-03-26T15:19:58.799Z,41.50
2018-03-26T15:22:26.270Z,47.90
2018-03-26T15:24:53.799Z,55.90
2018-03-26T15:27:21.326Z,60.00
2018-03-26T15:29:48.754Z,61.50
2018-03-26T15:32:17.026Z,56.60
2018-03-26T15:34:44.503Z,56.60
2018-03-26T15:37:12.017Z,60.40
2018-03-26T15:39:39.551Z,60.00
2018-03-26T15:42:07.061Z,61.60
2018-03-26T15:44:34.594Z,58.60
2018-03-26T15:47:02.150Z,60.90
2018-03-26T15:49:29.648Z,60.50
2018-03-26T15:51:57.936Z,61.60
2018-03-26T15:54:26.195Z,61.20
2018-03-26T15:56:53.709Z,71.50
2018-03-26T15:59:21.187Z,69.80
2018-03-26T16:01:48.689Z,69.30
2018-03-26T16:04:16.984Z,71.30
2018-03-26T16:06:44.496Z,71.10
2018-03-26T16:09:12.022Z,73.30
2018-03-26T16:11:39.508Z,73.80
2018-03-26T16:14:07.016Z,73.80
2018-03-26T16:16:34.509Z,75.30
2018-03-26T16:19:02.043Z,76.90
2018-03-26T16:21:29.528Z,77.10
2018-03-26T16:23:57.028Z,80.70
2018-03-26T16:26:25.284Z,84.80
2018-03-26T16:28:52.766Z,84.70
2018-03-26T16:31:21.058Z,87.10
2018-03-26T16:33:49.316Z,87.30
2018-03-26T16:36:17.592Z,87.90
2018-03-26T16:38:45.857Z,88.70
2018-03-26T16:41:25.295Z,88.70
2018-03-26T16:43:52.793Z,87.40
2018-03-26T16:46:20.331Z,86.50
2018-03-26T16:48:48.558Z,85.30
2018-03-26T16:51:16.105Z,85.30
2018-03-26T16:53:43.573Z,85.50
2018-03-26T16:56:11.090Z,86.00
2018-03-26T16:58:39.331Z,87.10
2018-03-26T17:01:06.836Z,87.10
2018-03-26T17:03:34.323Z,87.80
2018-03-26T17:06:01.813Z,88.20
2018-03-26T17:08:29.366Z,87.90
2018-03-26T17:10:56.924Z,88.20
2018-03-26T17:13:24.418Z,88.20
2018-03-26T17:15:52.668Z,88.70
2018-03-26T17:18:20.174Z,88.70
2018-03-26T17:20:47.659Z,88.80
2018-03-26T17:23:15.146Z,89.40
2018-03-26T17:25:42.632Z,89.30
2018-03-26T17:28:10.921Z,89.80
2018-03-26T17:30:38.436Z,89.80
2018-03-26T17:33:05.922Z,89.30
2018-03-26T17:35:34.218Z,87.10
2018-03-26T17:38:01.727Z,87.10
2018-03-26T17:40:29.218Z,87.60
2018-03-26T17:42:57.506Z,86.70
2018-03-26T17:45:25.768Z,86.80
2018-03-26T17:47:53.759Z,86.80
2018-03-26T17:50:21.233Z,86.90
2018-03-26T17:52:48.757Z,86.60
2018-03-26T17:55:17.218Z,87.30
2018-03-26T17:57:44.757Z,87.40
2018-03-26T18:00:12.231Z,87.30
2018-03-26T18:02:39.777Z,87.50
2018-03-26T18:05:07.266Z,87.80
2018-03-26T18:07:34.782Z,88.10
2018-03-26T18:10:02.313Z,88.50
2018-03-26T18:12:29.750Z,89.30
2018-03-26T18:14:58.041Z,89.50
2018-03-26T18:17:26.309Z,89.00
2018-03-26T18:19:54.571Z,89.10
2018-03-26T18:22:22.856Z,88.70
2018-03-26T18:24:50.358Z,88.60
2018-03-26T18:27:17.838Z,88.20
2018-03-26T18:29:45.368Z,88.40
2018-03-26T18:32:12.858Z,87.40
2018-03-26T18:34:40.477Z,88.10
2018-03-26T18:37:08.758Z,89.50
2018-03-26T18:39:36.280Z,89.50
2018-03-26T18:42:03.806Z,89.70
2018-03-26T18:44:31.294Z,89.50
2018-03-26T18:46:58.809Z,90.00
2018-03-26T18:49:26.308Z,90.00
2018-03-26T18:51:53.838Z,90.10
2018-03-26T18:54:21.348Z,89.90
2018-03-26T18:56:49.517Z,90.40
2018-03-26T18:59:17.016Z,90.30
2018-03-26T19:01:44.526Z,90.20
2018-03-26T19:04:12.013Z,90.00
2018-03-26T19:06:40.268Z,90.00
2018-03-26T19:09:08.563Z,90.40
2018-03-26T19:11:36.818Z,90.20
2018-03-26T19:14:04.329Z,90.20
2018-03-26T19:16:31.794Z,90.30
2018-03-26T19:18:59.279Z,90.10
2018-03-26T19:21:26.768Z,90.00
2018-03-26T19:23:55.091Z,89.80
2018-03-26T19:26:22.591Z,89.80
2018-03-26T19:28:50.115Z,90.30
2018-03-26T19:31:17.617Z,90.20
2018-03-26T19:33:45.887Z,90.20
2018-03-26T19:36:13.391Z,90.20
2018-03-26T19:38:40.884Z,90.50
2018-03-26T19:41:08.395Z,90.50
2018-03-26T19:43:35.917Z,90.50
2018-03-26T19:46:03.404Z,90.50
2018-03-26T19:48:31.704Z,90.20
2018-03-26T19:50:59.250Z,90.20
2018-03-26T19:53:26.745Z,89.80
2018-03-26T19:55:54.224Z,89.40
2018-03-26T19:58:21.776Z,89.40
2018-03-26T20:00:49.277Z,90.30
2018-03-26T20:03:17.545Z,90.30
2018-03-26T20:05:45.843Z,90.50
2018-03-26T20:08:13.377Z,90.50
2018-03-26T20:10:41.699Z,90.60
2018-03-26T20:13:09.191Z,90.60
2018-03-26T20:15:36.718Z,90.70
2018-03-26T20:18:05.165Z,90.60
2018-03-26T20:20:33.407Z,90.40
2018-03-26T20:23:00.978Z,90.40
2018-03-26T20:25:28.511Z,90.30
2018-03-26T20:27:56.003Z,90.20
2018-03-26T20:30:23.507Z,90.50
2018-03-26T20:32:50.981Z,90.60
2018-03-26T20:35:18.478Z,90.70
2018-03-26T20:37:45.956Z,90.60
2018-03-26T20:40:14.250Z,89.80
2018-03-26T20:42:41.744Z,89.80
2018-03-26T20:45:09.230Z,90.20
2018-03-26T20:47:36.715Z,90.50
2018-03-26T20:50:04.247Z,89.20
2018-03-26T20:52:31.778Z,89.00
2018-03-26T20:54:59.292Z,88.50
2018-03-26T20:57:27.565Z,86.80
2018-03-26T20:59:55.811Z,86.40
2018-03-26T21:02:23.312Z,86.40
2018-03-26T21:04:50.889Z,88.70
2018-03-26T21:07:18.359Z,89.50
2018-03-26T21:09:45.874Z,89.90
2018-03-26T21:12:14.135Z,90.50
2018-03-26T21:14:41.621Z,90.50
2018-03-26T21:17:09.902Z,90.80
2018-03-26T21:19:37.377Z,90.80
2018-03-26T21:22:04.876Z,90.70
2018-03-26T21:24:32.350Z,90.10
2018-03-26T21:26:59.859Z,90.00
2018-03-26T21:29:27.333Z,88.70
2018-03-26T21:31:54.839Z,89.20
2018-03-26T21:34:23.095Z,88.80
2018-03-26T21:36:50.615Z,88.80
2018-03-26T21:39:18.079Z,88.20
2018-03-26T21:41:45.587Z,88.30
2018-03-26T21:44:13.877Z,89.20
2018-03-26T21:46:42.114Z,89.10
2018-03-26T21:49:09.636Z,89.10
2018-03-26T21:51:37.146Z,88.70
2018-03-26T21:54:04.647Z,89.20
2018-03-26T21:56:32.131Z,88.70
2018-03-26T21:58:59.627Z,90.10
2018-03-26T22:01:27.095Z,89.90
2018-03-26T22:03:55.337Z,90.50
2018-03-26T22:06:22.843Z,90.50
2018-03-26T22:08:50.355Z,90.20
2018-03-26T22:11:17.843Z,89.10
2018-03-26T22:13:46.122Z,89.00
2018-03-26T22:16:14.378Z,88.90
2018-03-26T22:18:41.897Z,88.90
2018-03-26T22:21:09.378Z,89.00
2018-03-26T22:23:36.843Z,88.10
2018-03-26T22:26:04.338Z,88.80
2018-03-26T22:28:32.566Z,89.90
2018-03-26T22:31:00.043Z,89.90
2018-03-26T22:33:28.328Z,88.70
2018-03-26T22:35:55.826Z,88.70
2018-03-26T22:38:23.306Z,89.40
2018-03-26T22:40:50.922Z,89.40
2018-03-26T22:43:19.155Z,89.30
2018-03-26T22:45:46.615Z,89.30
2018-03-26T22:48:14.117Z,89.20
2018-03-26T22:50:42.365Z,90.30
2018-03-26T22:53:09.957Z,90.30
2018-03-26T22:55:38.196Z,88.80
2018-03-26T22:58:05.678Z,88.80
2018-03-26T23:00:33.196Z,89.40
2018-03-26T23:03:00.663Z,89.60
2018-03-26T23:05:28.171Z,89.10
2018-03-26T23:07:56.457Z,89.60
2018-03-26T23:10:24.718Z,89.50
2018-03-26T23:12:53.258Z,89.80
2018-03-26T23:15:20.766Z,89.80
2018-03-26T23:17:49.026Z,90.10
2018-03-26T23:20:16.504Z,90.10
2018-03-26T23:22:47.315Z,90.00
2018-03-26T23:25:14.807Z,90.00
2018-03-26T23:27:43.083Z,90.10
2018-03-26T23:30:11.311Z,90.40
2018-03-26T23:32:38.786Z,90.40
2018-03-26T23:35:06.283Z,90.80
2018-03-26T23:37:33.753Z,90.50
2018-03-26T23:40:01.272Z,90.20
2018-03-26T23:42:28.747Z,90.00
2018-03-26T23:44:56.997Z,90.00
2018-03-26T23:47:26.001Z,90.60
2018-03-26T23:49:53.507Z,90.60
2018-03-26T23:52:20.961Z,90.50
2018-03-26T23:54:48.483Z,90.10
2018-03-26T23:57:16.862Z,90.30
2018-03-26T23:59:45.131Z,90.40
